Main page
METAR-TAF:

METAR-TAF

Airports :

Passo della Cisa, Italy

latitude: 44-26N, longitude: 009-56E, elevation: 1039 m

Current weather observation

The report was made 9 hours and 52 minutes ago, at 15:55 UTC
Calm wind
Temperature 14°C
Humidity 67%
Pressure 1020 hPa
Visibility 10 km or more
no clouds below 1500 m and no cumulonimbus

METAR: LIMT 251555Z 00000KT CAVOK 14/08 Q1020 RMK SCT SCT200 MON LIB VAL NIL VIS MIN 9999

Time: 03:47 (01:47 UTC)


TAF: missing

Weather observations and forecasts of more than 4000 airports (METAR and TAF reports).

The available stations are represented by yellow and red dots on the map.

Hover mouse over dot to see the name of the station.

Then click to see weather observations and forecasts.

To change the map : click on the green buttons with a black cross to zoom in, on the green button with a dash to zoom out, or on the green arrows for adjacent maps.


METAR-TAF: